createdAt,value
2023-02-08T00:02:00.998Z,103279.16
2023-02-08T00:04:27.501Z,103283.84
2023-02-08T00:06:54.035Z,103282.16
2023-02-08T00:09:20.312Z,103279.66
2023-02-08T00:11:46.590Z,103282.59
2023-02-08T00:14:12.915Z,103287.50
2023-02-08T00:16:39.657Z,103280.31
2023-02-08T00:19:05.948Z,103283.50
2023-02-08T00:21:35.165Z,103286.25
2023-02-08T00:24:01.684Z,103282.91
2023-02-08T00:26:27.927Z,103277.63
2023-02-08T00:28:54.202Z,103281.66
2023-02-08T00:31:20.593Z,103278.91
2023-02-08T00:33:47.145Z,103276.63
2023-02-08T00:36:13.493Z,103272.44
2023-02-08T00:38:39.990Z,103280.88
2023-02-08T00:41:06.413Z,103275.59
2023-02-08T00:43:32.720Z,103273.09
2023-02-08T00:45:59.601Z,103272.22
2023-02-08T00:48:26.783Z,103269.72
2023-02-08T00:51:00.562Z,103269.72
2023-02-08T00:53:27.068Z,103268.03
2023-02-08T00:55:53.698Z,103266.38
2023-02-08T00:58:20.264Z,103267.44
2023-02-08T01:00:46.661Z,103260.22
2023-02-08T01:03:12.972Z,103259.63
2023-02-08T01:05:39.255Z,103264.50
2023-02-08T01:08:05.521Z,103255.66
2023-02-08T01:10:34.193Z,103251.47
2023-02-08T01:13:01.719Z,103256.31
2023-02-08T01:15:28.032Z,103254.88
2023-02-08T01:17:55.246Z,103257.81
2023-02-08T01:20:22.290Z,103256.59
2023-02-08T01:22:48.660Z,103248.56
2023-02-08T01:25:15.295Z,103258.13
2023-02-08T01:27:41.793Z,103258.13
2023-02-08T01:30:08.616Z,103247.56
2023-02-08T01:32:34.912Z,103245.91
2023-02-08T01:35:02.320Z,103254.34
2023-02-08T01:37:28.605Z,103253.72
2023-02-08T01:39:54.820Z,103244.03
2023-02-08T01:42:21.112Z,103246.16
2023-02-08T01:45:06.224Z,103244.47
2023-02-08T01:47:32.543Z,103240.06
2023-02-08T01:50:01.226Z,103240.25
2023-02-08T01:52:28.688Z,103235.00
2023-02-08T01:54:57.645Z,103236.91
2023-02-08T01:57:24.995Z,103233.34
2023-02-08T01:59:54.838Z,103232.50
2023-02-08T02:02:22.036Z,103233.34
2023-02-08T02:04:49.558Z,103232.50
2023-02-08T02:07:17.347Z,103229.75
2023-02-08T02:09:46.615Z,103228.03
2023-02-08T02:12:13.693Z,103228.28
2023-02-08T02:14:40.380Z,103226.59
2023-02-08T02:17:07.088Z,103221.34
2023-02-08T02:19:51.988Z,103225.13
2023-02-08T02:22:37.900Z,103236.09
2023-02-08T02:25:20.924Z,103233.59
2023-02-08T02:28:02.735Z,103231.69
2023-02-08T02:30:38.326Z,103234.44
2023-02-08T02:33:19.259Z,103236.09
2023-02-08T02:35:49.993Z,103238.00
2023-02-08T02:38:22.687Z,103230.63
2023-02-08T02:41:01.176Z,103218.78
2023-02-08T02:43:41.318Z,103223.25
2023-02-08T02:46:23.129Z,103215.44
2023-02-08T02:49:08.229Z,103211.63
2023-02-08T02:51:37.582Z,103220.09
2023-02-08T02:54:12.970Z,103213.78
2023-02-08T02:56:42.447Z,103212.06
2023-02-08T02:59:10.614Z,103208.47
2023-02-08T03:01:37.102Z,103215.69
2023-02-08T03:04:13.753Z,103207.44
2023-02-08T03:06:55.222Z,103209.31
2023-02-08T03:09:30.904Z,103206.56
2023-02-08T03:12:04.338Z,103209.31
2023-02-08T03:14:40.880Z,103204.91
2023-02-08T03:17:10.203Z,103213.13
2023-02-08T03:19:42.546Z,103208.47
2023-02-08T03:22:14.105Z,103210.38
2023-02-08T03:24:46.146Z,103211.47
2023-02-08T03:27:17.882Z,103204.28
2023-02-08T03:29:49.848Z,103205.38
2023-02-08T03:32:26.645Z,103213.78
2023-02-08T03:34:59.344Z,103211.28
2023-02-08T03:37:36.360Z,103211.53
2023-02-08T03:40:06.245Z,103207.06
2023-02-08T03:42:33.828Z,103203.47
2023-02-08T03:45:08.218Z,103212.78
2023-02-08T03:47:36.950Z,103216.59
2023-02-08T03:50:04.856Z,103207.53
2023-02-08T03:52:32.190Z,103208.38
2023-02-08T03:55:07.141Z,103215.75
2023-02-08T03:57:37.020Z,103221.25
2023-02-08T04:00:08.462Z,103213.03
2023-02-08T04:02:37.801Z,103211.34
2023-02-08T04:05:04.941Z,103209.63
2023-02-08T04:07:31.414Z,103209.63
2023-02-08T04:09:59.048Z,103206.88
2023-02-08T04:12:25.278Z,103211.53
2023-02-08T04:14:51.547Z,103211.53
2023-02-08T04:17:17.996Z,103205.22
2023-02-08T04:19:44.319Z,103201.63
2023-02-08T04:22:10.827Z,103203.53
2023-02-08T04:24:37.050Z,103205.44
2023-02-08T04:27:05.766Z,103210.69
2023-02-08T04:29:33.375Z,103214.50
2023-02-08T04:32:00.421Z,103206.50
2023-02-08T04:34:27.260Z,103211.38
2023-02-08T04:36:53.758Z,103215.19
2023-02-08T04:39:20.039Z,103217.31
2023-02-08T04:41:46.344Z,103211.81
2023-02-08T04:44:12.619Z,103212.84
2023-02-08T04:46:39.168Z,103215.84
2023-02-08T04:49:05.753Z,103213.94
2023-02-08T04:51:33.491Z,103221.31
2023-02-08T04:54:01.236Z,103226.19
2023-02-08T04:56:27.738Z,103230.84
2023-02-08T04:58:54.385Z,103221.16
2023-02-08T05:01:20.896Z,103227.47
2023-02-08T05:03:47.391Z,103229.38
2023-02-08T05:06:13.673Z,103229.38
2023-02-08T05:08:40.596Z,103228.53
2023-02-08T05:11:06.838Z,103222.22
2023-02-08T05:13:34.133Z,103227.91
2023-02-08T05:16:00.460Z,103223.47
2023-02-08T05:18:26.841Z,103224.53
2023-02-08T05:21:00.054Z,103226.22
2023-02-08T05:23:29.884Z,103226.44
2023-02-08T05:25:56.355Z,103233.59
2023-02-08T05:28:22.630Z,103230.03
2023-02-08T05:30:49.187Z,103223.94
2023-02-08T05:33:16.877Z,103225.19
2023-02-08T05:35:44.410Z,103229.00
2023-02-08T05:38:11.054Z,103225.44
2023-02-08T05:40:37.344Z,103235.56
2023-02-08T05:43:03.632Z,103231.97
2023-02-08T05:45:29.893Z,103241.88
2023-02-08T05:47:58.649Z,103230.06
2023-02-08T05:50:24.914Z,103233.00
2023-02-08T05:52:51.396Z,103233.00
2023-02-08T05:55:17.650Z,103229.44
2023-02-08T05:57:43.934Z,103230.50
2023-02-08T06:00:10.781Z,103233.47
2023-02-08T06:02:37.563Z,103238.31
2023-02-08T06:05:03.950Z,103247.38
2023-02-08T06:07:30.197Z,103249.50
2023-02-08T06:09:56.694Z,103249.75
2023-02-08T06:12:22.932Z,103255.00
2023-02-08T06:14:49.525Z,103255.22
2023-02-08T06:17:15.975Z,103252.47
2023-02-08T06:19:42.253Z,103245.53
2023-02-08T06:22:08.740Z,103241.09
2023-02-08T06:24:34.977Z,103236.69
2023-02-08T06:27:01.439Z,103231.19
2023-02-08T06:29:27.688Z,103225.72
2023-02-08T06:31:54.077Z,103234.78
2023-02-08T06:34:20.711Z,103230.13
2023-02-08T06:36:46.936Z,103230.13
2023-02-08T06:39:13.429Z,103230.97
2023-02-08T06:41:39.718Z,103230.13
2023-02-08T06:44:06.045Z,103220.22
2023-02-08T06:46:32.382Z,103215.81
2023-02-08T06:49:00.231Z,103215.81
2023-02-08T06:51:26.966Z,103211.34
2023-02-08T06:53:53.447Z,103208.63
2023-02-08T06:56:19.677Z,103213.06
2023-02-08T06:58:46.324Z,103209.47
2023-02-08T07:01:13.756Z,103214.34
2023-02-08T07:03:40.731Z,103211.59
2023-02-08T07:06:12.177Z,103211.59
2023-02-08T07:08:38.784Z,103206.34
2023-02-08T07:11:12.573Z,103207.16
2023-02-08T07:13:38.915Z,103213.50
2023-02-08T07:16:06.356Z,103210.75
2023-02-08T07:18:32.904Z,103209.69
2023-02-08T07:20:59.454Z,103216.84
2023-02-08T07:23:28.777Z,103216.00
2023-02-08T07:26:02.833Z,103213.91
2023-02-08T07:28:29.100Z,103208.41
2023-02-08T07:30:55.676Z,103207.34
2023-02-08T07:33:22.592Z,103198.06
2023-02-08T07:35:50.209Z,103201.88
2023-02-08T07:38:16.654Z,103198.91
2023-02-08T07:40:43.909Z,103201.41
2023-02-08T07:43:10.269Z,103200.16
2023-02-08T07:45:39.834Z,103204.38
2023-02-08T07:48:06.600Z,103202.25
2023-02-08T07:50:33.194Z,103210.66
2023-02-08T07:52:59.760Z,103203.91
2023-02-08T07:55:26.110Z,103202.38
2023-02-08T07:57:55.295Z,103195.19
2023-02-08T08:00:21.739Z,103205.47
2023-02-08T08:02:50.516Z,103205.03
2023-02-08T08:05:17.033Z,103204.16
2023-02-08T08:07:43.309Z,103204.56
2023-02-08T08:10:09.648Z,103214.88
2023-02-08T08:12:36.124Z,103213.97
2023-02-08T08:15:02.395Z,103212.88
2023-02-08T08:17:29.994Z,103211.38
2023-02-08T08:19:56.560Z,103212.97
2023-02-08T08:22:22.912Z,103211.03
2023-02-08T08:24:49.391Z,103202.72
2023-02-08T08:27:15.938Z,103202.47
2023-02-08T08:29:43.847Z,103205.78
2023-02-08T08:32:11.835Z,103205.47
2023-02-08T08:34:38.490Z,103201.84
2023-02-08T08:37:04.998Z,103201.31
2023-02-08T08:39:32.082Z,103205.66
2023-02-08T08:41:59.754Z,103199.88
2023-02-08T08:44:26.455Z,103206.94
2023-02-08T08:46:56.856Z,103192.91
2023-02-08T08:49:23.773Z,103198.09
2023-02-08T08:51:50.832Z,103189.56
2023-02-08T08:54:17.402Z,103189.47
2023-02-08T08:56:44.045Z,103181.75
2023-02-08T08:59:10.687Z,103185.84
2023-02-08T09:01:38.497Z,103175.56
2023-02-08T09:04:04.994Z,103174.19
2023-02-08T09:06:31.535Z,103176.59
2023-02-08T09:08:57.838Z,103177.97
2023-02-08T09:11:24.106Z,103176.50
2023-02-08T09:13:56.305Z,103173.47
2023-02-08T09:16:23.554Z,103171.81
2023-02-08T09:18:50.275Z,103172.56
2023-02-08T09:21:20.995Z,103171.13
2023-02-08T09:23:50.232Z,103169.44
2023-02-08T09:26:17.724Z,103168.47
2023-02-08T09:28:43.992Z,103165.63
2023-02-08T09:31:11.707Z,103177.34
2023-02-08T09:33:38.499Z,103184.44
2023-02-08T09:36:05.638Z,103187.06
2023-02-08T09:38:34.615Z,103179.50
2023-02-08T09:41:03.899Z,103177.72
2023-02-08T09:43:41.761Z,103175.38
2023-02-08T09:46:11.525Z,103179.47
2023-02-08T09:48:39.237Z,103186.53
2023-02-08T09:51:20.628Z,103180.03
2023-02-08T09:53:50.257Z,103183.25
2023-02-08T09:56:19.522Z,103185.84
2023-02-08T09:58:53.076Z,103178.03
2023-02-08T10:01:27.975Z,103174.88
2023-02-08T10:04:08.838Z,103186.38
2023-02-08T10:06:35.756Z,103182.97
2023-02-08T10:09:04.324Z,103190.63
2023-02-08T10:11:37.091Z,103188.53
2023-02-08T10:14:22.577Z,103185.94
2023-02-08T10:17:11.212Z,103183.34
2023-02-08T10:19:43.234Z,103190.97
2023-02-08T10:22:17.012Z,103177.59
2023-02-08T10:24:43.667Z,103174.16
2023-02-08T10:27:17.487Z,103176.25
2023-02-08T10:29:52.057Z,103178.38
2023-02-08T10:32:27.747Z,103176.84
2023-02-08T10:35:02.124Z,103177.00
2023-02-08T10:37:34.530Z,103171.88
2023-02-08T10:40:08.678Z,103169.50
2023-02-08T10:42:37.345Z,103172.69
2023-02-08T10:45:25.065Z,103167.50
2023-02-08T10:47:56.594Z,103156.84
2023-02-08T10:50:30.278Z,103143.38
2023-02-08T10:52:57.675Z,103155.69
2023-02-08T10:55:25.044Z,103155.22
2023-02-08T10:57:55.817Z,103159.44
2023-02-08T11:00:32.147Z,103153.44
2023-02-08T11:03:01.325Z,103151.88
2023-02-08T11:05:35.319Z,103140.31
2023-02-08T11:08:09.330Z,103138.75
2023-02-08T11:10:38.031Z,103139.09
2023-02-08T11:13:09.929Z,103127.53
2023-02-08T11:15:44.324Z,103129.81
2023-02-08T11:18:18.157Z,103126.56
2023-02-08T11:20:48.596Z,103119.41
2023-02-08T11:23:20.447Z,103115.38
2023-02-08T11:25:47.088Z,103120.13
2023-02-08T11:28:24.274Z,103111.88
2023-02-08T11:31:01.533Z,103107.22
2023-02-08T11:33:29.114Z,103099.47
2023-02-08T11:36:12.910Z,103100.09
2023-02-08T11:38:42.023Z,103099.56
2023-02-08T11:41:17.354Z,103090.72
2023-02-08T11:43:44.918Z,103098.78
2023-02-08T11:48:53.299Z,103104.13
2023-02-08T11:51:27.859Z,103100.53
2023-02-08T11:53:54.910Z,103095.56
2023-02-08T11:56:23.108Z,103099.72
2023-02-08T11:58:59.229Z,103098.63
2023-02-08T12:01:27.113Z,103090.31
2023-02-08T12:03:56.702Z,103090.34
2023-02-08T12:06:42.922Z,103086.69
2023-02-08T12:09:09.352Z,103077.53
2023-02-08T12:11:41.852Z,103085.88
2023-02-08T12:14:26.990Z,103080.88
2023-02-08T12:17:02.715Z,103075.03
2023-02-08T12:19:35.111Z,103068.09
2023-02-08T12:22:12.041Z,103073.09
2023-02-08T12:24:50.628Z,103067.28
2023-02-08T12:27:27.711Z,103063.69
2023-02-08T12:30:16.500Z,103058.38
2023-02-08T12:33:01.178Z,103052.56
2023-02-08T12:35:51.052Z,103040.88
2023-02-08T12:39:18.371Z,103043.63
2023-02-08T12:41:48.859Z,103043.66
2023-02-08T12:44:17.923Z,103048.34
2023-02-08T12:46:45.165Z,103036.97
2023-02-08T12:49:30.777Z,103031.41
2023-02-08T12:52:15.808Z,103031.66
2023-02-08T12:54:49.087Z,103026.34
2023-02-08T12:57:16.871Z,103024.97
2023-02-08T12:59:48.685Z,103024.13
2023-02-08T13:02:18.299Z,103024.41
2023-02-08T13:04:47.261Z,103021.03
2023-02-08T13:07:19.566Z,103008.53
2023-02-08T13:09:56.173Z,103008.50
2023-02-08T13:12:27.957Z,103004.88
2023-02-08T13:15:34.503Z,102993.97
2023-02-08T13:18:22.380Z,102998.97
2023-02-08T13:20:53.996Z,102989.50
2023-02-08T13:23:20.236Z,102984.22
2023-02-08T13:25:50.569Z,102982.25
2023-02-08T13:28:22.122Z,102980.88
2023-02-08T13:30:54.600Z,102964.16
2023-02-08T13:33:28.915Z,102959.13
2023-02-08T13:35:55.222Z,102962.44
2023-02-08T13:38:35.620Z,102956.63
2023-02-08T13:41:16.188Z,102960.75
2023-02-08T13:43:46.905Z,102957.72
2023-02-08T13:46:13.863Z,102957.41
2023-02-08T13:48:46.146Z,102943.50
2023-02-08T13:51:30.775Z,102933.19
2023-02-08T13:53:57.138Z,102935.66
2023-02-08T13:56:43.464Z,102925.38
2023-02-08T13:59:34.263Z,102925.94
2023-02-08T14:02:15.144Z,102925.94
2023-02-08T14:04:41.770Z,102918.72
2023-02-08T14:07:10.974Z,102920.38
2023-02-08T14:09:37.261Z,102912.00
2023-02-08T14:12:07.085Z,102918.41
2023-02-08T14:14:43.281Z,102901.69
2023-02-08T14:17:26.062Z,102906.16
2023-02-08T14:19:57.049Z,102907.56
2023-02-08T14:22:23.668Z,102907.28
2023-02-08T14:25:00.912Z,102904.19
2023-02-08T14:27:30.065Z,102900.31
2023-02-08T14:30:05.534Z,102903.63
2023-02-08T14:32:34.053Z,102901.66
2023-02-08T14:35:02.784Z,102893.63
2023-02-08T14:37:30.902Z,102895.28
2023-02-08T14:40:16.355Z,102889.19
2023-02-08T14:43:02.684Z,102886.91
2023-02-08T14:45:34.531Z,102889.69
2023-02-08T14:48:00.776Z,102882.19
2023-02-08T14:50:32.465Z,102874.97
2023-02-08T14:52:58.992Z,102877.19
2023-02-08T14:55:27.534Z,102873.56
2023-02-08T14:57:58.038Z,102867.47
2023-02-08T15:00:37.458Z,102877.78
2023-02-08T15:03:06.580Z,102868.03
2023-02-08T15:05:38.434Z,102865.84
2023-02-08T15:08:05.487Z,102871.69
2023-02-08T15:10:35.257Z,102858.66
2023-02-08T15:13:06.786Z,102859.25
2023-02-08T15:15:35.320Z,102857.03
2023-02-08T15:18:02.291Z,102864.28
2023-02-08T15:20:31.038Z,102856.53
2023-02-08T15:23:04.128Z,102847.94
2023-02-08T15:25:35.228Z,102853.22
2023-02-08T15:28:17.079Z,102847.41
2023-02-08T15:30:45.620Z,102845.22
2023-02-08T15:33:17.789Z,102851.63
2023-02-08T15:35:46.337Z,102850.56
2023-02-08T15:38:20.268Z,102851.09
2023-02-08T15:41:09.761Z,102857.53
2023-02-08T15:43:37.104Z,102848.41
2023-02-08T15:46:07.709Z,102851.19
2023-02-08T15:48:37.088Z,102852.06
2023-02-08T15:51:05.252Z,102850.97
2023-02-08T15:53:39.921Z,102845.44
2023-02-08T15:56:07.459Z,102849.34
2023-02-08T15:58:38.900Z,102840.22
2023-02-08T16:01:06.617Z,102828.53
2023-02-08T16:03:35.194Z,102832.44
2023-02-08T16:06:02.903Z,102830.81
2023-02-08T16:08:33.651Z,102829.16
2023-02-08T16:11:23.284Z,102824.72
2023-02-08T16:13:54.895Z,102816.16
2023-02-08T16:16:43.940Z,102808.41
2023-02-08T16:19:20.761Z,102807.84
2023-02-08T16:21:47.242Z,102811.22
2023-02-08T16:24:14.158Z,102805.09
2023-02-08T16:26:49.956Z,102806.53
2023-02-08T16:29:25.693Z,102802.66
2023-02-08T16:32:04.040Z,102809.88
2023-02-08T16:34:32.729Z,102802.38
2023-02-08T16:37:00.097Z,102794.91
2023-02-08T16:39:37.735Z,102802.13
2023-02-08T16:42:16.070Z,102793.22
2023-02-08T16:44:57.092Z,102799.88
2023-02-08T16:47:25.262Z,102789.06
2023-02-08T16:49:51.778Z,102796.75
2023-02-08T16:52:18.257Z,102791.47
2023-02-08T16:54:44.524Z,102784.78
2023-02-08T16:57:11.015Z,102786.69
2023-02-08T16:59:37.309Z,102784.16
2023-02-08T17:02:03.687Z,102771.94
2023-02-08T17:04:32.005Z,102779.38
2023-02-08T17:06:59.494Z,102769.06
2023-02-08T17:09:25.969Z,102773.44
2023-02-08T17:11:52.246Z,102770.63
2023-02-08T17:14:18.519Z,102772.25
2023-02-08T17:16:44.763Z,102763.03
2023-02-08T17:19:16.086Z,102765.47
2023-02-08T17:21:42.329Z,102759.88
2023-02-08T17:24:08.608Z,102761.47
2023-02-08T17:26:37.985Z,102756.97
2023-02-08T17:29:04.493Z,102759.09
2023-02-08T17:31:31.096Z,102752.16
2023-02-08T17:34:04.382Z,102751.53
2023-02-08T17:36:32.017Z,102749.78
2023-02-08T17:38:58.668Z,102750.00
2023-02-08T17:41:25.155Z,102740.84
2023-02-08T17:43:53.124Z,102735.50
2023-02-08T17:46:20.732Z,102727.44
2023-02-08T17:48:48.365Z,102731.00
2023-02-08T17:51:16.432Z,102730.13
2023-02-08T17:53:43.914Z,102731.13
2023-02-08T17:56:20.790Z,102717.28
2023-02-08T17:58:50.216Z,102716.41
2023-02-08T18:01:21.163Z,102711.09
2023-02-08T18:03:48.408Z,102715.47
2023-02-08T18:06:15.047Z,102716.25
2023-02-08T18:08:41.587Z,102722.53
2023-02-08T18:11:13.174Z,102722.47
2023-02-08T18:13:39.507Z,102718.56
2023-02-08T18:16:06.499Z,102719.09
2023-02-08T18:18:32.984Z,102713.25
2023-02-08T18:20:59.238Z,102713.19
2023-02-08T18:23:26.353Z,102715.63
2023-02-08T18:25:52.691Z,102705.91
2023-02-08T18:28:19.006Z,102719.41
2023-02-08T18:30:45.375Z,102708.31
2023-02-08T18:33:13.543Z,102710.75
2023-02-08T18:35:39.802Z,102712.09
2023-02-08T18:38:06.751Z,102707.34
2023-02-08T18:40:33.276Z,102709.78
2023-02-08T18:42:59.761Z,102707.53
2023-02-08T18:45:26.078Z,102701.69
2023-02-08T18:47:52.323Z,102696.69
2023-02-08T18:50:18.572Z,102698.84
2023-02-08T18:52:44.819Z,102691.13
2023-02-08T18:55:12.433Z,102696.03
2023-02-08T18:57:39.891Z,102695.72
2023-02-08T19:00:07.423Z,102688.53
2023-02-08T19:02:33.885Z,102688.78
2023-02-08T19:05:00.371Z,102682.72
2023-02-08T19:07:26.644Z,102680.44
2023-02-08T19:09:53.972Z,102682.63
2023-02-08T19:12:21.043Z,102688.06
2023-02-08T19:14:50.985Z,102689.66
2023-02-08T19:17:17.626Z,102682.16
2023-02-08T19:19:44.141Z,102684.84
2023-02-08T19:22:10.864Z,102684.50
2023-02-08T19:24:37.383Z,102683.34
2023-02-08T19:27:04.022Z,102675.56
2023-02-08T19:29:30.576Z,102675.25
2023-02-08T19:31:58.382Z,102674.91
2023-02-08T19:34:25.638Z,102673.75
2023-02-08T19:36:53.412Z,102667.91
2023-02-08T19:39:24.713Z,102682.19
2023-02-08T19:41:52.989Z,102685.44
2023-02-08T19:44:19.915Z,102671.31
2023-02-08T19:46:47.451Z,102674.59
2023-02-08T19:49:14.064Z,102672.06
2023-02-08T19:51:41.156Z,102671.50
2023-02-08T19:54:10.101Z,102670.06
2023-02-08T19:56:36.867Z,102680.25
2023-02-08T19:59:04.087Z,102670.81
2023-02-08T20:01:31.248Z,102679.34
2023-02-08T20:03:57.541Z,102675.19
2023-02-08T20:06:25.707Z,102680.91
2023-02-08T20:08:52.058Z,102683.94
2023-02-08T20:11:20.304Z,102688.88
2023-02-08T20:13:46.916Z,102680.84
2023-02-08T20:16:13.436Z,102686.59
2023-02-08T20:18:40.098Z,102678.81
2023-02-08T20:21:06.552Z,102689.53
2023-02-08T20:23:32.853Z,102688.09
2023-02-08T20:26:18.582Z,102689.63
2023-02-08T20:28:46.844Z,102700.06
2023-02-08T20:31:21.554Z,102707.97
2023-02-08T20:33:48.620Z,102700.19
2023-02-08T20:36:22.935Z,102705.97
2023-02-08T20:38:49.840Z,102705.59
2023-02-08T20:41:16.794Z,102717.34
2023-02-08T20:43:44.145Z,102715.69
2023-02-08T20:46:14.088Z,102709.84
2023-02-08T20:48:40.477Z,102705.94
2023-02-08T20:51:17.423Z,102704.22
2023-02-08T20:53:45.147Z,102699.00
2023-02-08T20:56:12.899Z,102699.25
2023-02-08T20:58:39.426Z,102706.88
2023-02-08T21:01:09.897Z,102710.16
2023-02-08T21:03:36.430Z,102707.63
2023-02-08T21:06:10.844Z,102706.78
2023-02-08T21:08:37.141Z,102700.72
2023-02-08T21:11:03.537Z,102706.22
2023-02-08T21:13:30.025Z,102702.84
2023-02-08T21:15:56.298Z,102702.03
2023-02-08T21:18:22.790Z,102708.59
2023-02-08T21:20:49.584Z,102712.44
2023-02-08T21:23:15.899Z,102712.69
2023-02-08T21:25:44.499Z,102715.69
2023-02-08T21:28:11.491Z,102708.75
2023-02-08T21:30:38.449Z,102700.50
2023-02-08T21:33:05.144Z,102702.66
2023-02-08T21:35:31.528Z,102703.75
2023-02-08T21:37:58.023Z,102697.66
2023-02-08T21:40:24.291Z,102701.50
2023-02-08T21:42:50.786Z,102701.97
2023-02-08T21:45:17.138Z,102706.03
2023-02-08T21:47:43.636Z,102700.19
2023-02-08T21:50:29.071Z,102695.19
2023-02-08T21:53:13.840Z,102691.00
2023-02-08T21:55:44.605Z,102691.25
2023-02-08T21:58:11.077Z,102693.41
2023-02-08T22:00:37.291Z,102695.31
2023-02-08T22:03:03.755Z,102683.47
2023-02-08T22:05:48.738Z,102680.13
2023-02-08T22:08:14.984Z,102688.84
2023-02-08T22:10:50.202Z,102678.13
2023-02-08T22:13:23.056Z,102684.69
2023-02-08T22:15:49.296Z,102681.34
2023-02-08T22:18:15.580Z,102675.84
2023-02-08T22:20:43.500Z,102685.41
2023-02-08T22:23:10.021Z,102682.94
2023-02-08T22:25:36.524Z,102683.41
2023-02-08T22:28:02.839Z,102688.06
2023-02-08T22:30:29.097Z,102683.66
2023-02-08T22:32:55.377Z,102680.28
2023-02-08T22:35:21.704Z,102682.19
2023-02-08T22:37:48.089Z,102688.19
2023-02-08T22:40:14.611Z,102687.59
2023-02-08T22:42:43.041Z,102685.09
2023-02-08T22:45:12.762Z,102688.06
2023-02-08T22:47:39.099Z,102687.47
2023-02-08T22:50:06.192Z,102683.91
2023-02-08T22:52:34.423Z,102689.88
2023-02-08T22:55:03.775Z,102684.63
2023-02-08T22:57:31.480Z,102689.75
2023-02-08T22:59:57.862Z,102700.75
2023-02-08T23:02:24.338Z,102691.09
2023-02-08T23:04:51.025Z,102675.69
2023-02-08T23:07:17.515Z,102681.41
2023-02-08T23:09:44.225Z,102670.91
2023-02-08T23:12:10.529Z,102670.28
2023-02-08T23:14:37.128Z,102670.78
2023-02-08T23:17:03.908Z,102674.59
2023-02-08T23:19:30.453Z,102666.59
2023-02-08T23:21:59.817Z,102665.16
2023-02-08T23:24:26.314Z,102659.06
2023-02-08T23:26:52.788Z,102670.06
2023-02-08T23:29:20.509Z,102655.75
2023-02-08T23:31:46.861Z,102660.63
2023-02-08T23:34:13.509Z,102654.28
2023-02-08T23:36:39.995Z,102659.19
2023-02-08T23:39:06.412Z,102655.84
2023-02-08T23:41:34.121Z,102658.84
2023-02-08T23:44:00.405Z,102655.25
2023-02-08T23:46:27.957Z,102651.91
2023-02-08T23:48:54.473Z,102655.72
2023-02-08T23:51:21.735Z,102651.31
2023-02-08T23:53:48.254Z,102650.94
2023-02-08T23:56:16.384Z,102652.03
2023-02-08T23:58:43.841Z,102646.78
